createdAt,value
2017-12-24T00:00:18.760Z,1022.97
2017-12-24T00:01:27.591Z,1022.91
2017-12-24T00:02:36.418Z,1022.89
2017-12-24T00:03:45.296Z,1022.93
2017-12-24T00:04:54.122Z,1022.91
2017-12-24T00:06:02.951Z,1022.87
2017-12-24T00:07:11.786Z,1022.94
2017-12-24T00:08:20.885Z,1022.85
2017-12-24T00:09:29.863Z,1022.86
2017-12-24T00:10:38.694Z,1022.8
2017-12-24T00:11:47.521Z,1022.73
2017-12-24T00:12:56.347Z,1022.76
2017-12-24T00:14:05.175Z,1022.77
2017-12-24T00:15:14.426Z,1022.7
2017-12-24T00:16:23.251Z,1022.73
2017-12-24T00:17:32.354Z,1022.77
2017-12-24T00:18:41.183Z,1022.76
2017-12-24T00:19:50.015Z,1022.73
2017-12-24T00:20:58.842Z,1022.78
2017-12-24T00:22:07.671Z,1022.78
2017-12-24T00:23:16.498Z,1022.69
2017-12-24T00:24:25.328Z,1022.75
2017-12-24T00:25:34.433Z,1022.72
2017-12-24T00:26:43.413Z,1022.74
2017-12-24T00:27:52.242Z,1022.73
2017-12-24T00:29:01.080Z,1022.71
2017-12-24T00:30:10.177Z,1022.77
2017-12-24T00:31:19.006Z,1022.73
2017-12-24T00:32:27.934Z,1022.78
2017-12-24T00:33:37.042Z,1022.94
2017-12-24T00:34:46.141Z,1022.76
2017-12-24T00:35:54.971Z,1022.75
2017-12-24T00:37:03.800Z,1022.85
2017-12-24T00:38:12.629Z,1022.74
2017-12-24T00:39:21.459Z,1022.7
2017-12-24T00:40:30.288Z,1022.68
2017-12-24T00:41:39.117Z,1022.71
2017-12-24T00:42:47.947Z,1022.72
2017-12-24T00:43:56.776Z,1022.71
2017-12-24T00:45:05.604Z,1022.7
2017-12-24T00:46:14.433Z,1022.65
2017-12-24T00:47:23.261Z,1022.61
2017-12-24T00:48:32.089Z,1022.62
2017-12-24T00:49:40.918Z,1022.63
2017-12-24T00:50:49.748Z,1022.69
2017-12-24T00:51:58.847Z,1022.7
2017-12-24T00:53:07.950Z,1022.76
2017-12-24T00:54:16.781Z,1022.6
2017-12-24T00:55:25.609Z,1022.68
2017-12-24T00:56:34.708Z,1022.8
2017-12-24T00:57:43.537Z,1022.7
2017-12-24T00:58:52.365Z,1022.65
2017-12-24T01:00:01.195Z,1022.83
2017-12-24T01:01:10.322Z,1022.68
2017-12-24T01:02:19.150Z,1022.71
2017-12-24T01:03:27.979Z,1022.75
2017-12-24T01:04:37.081Z,1022.68
2017-12-24T01:05:45.909Z,1022.68
2017-12-24T01:06:54.889Z,1022.69
2017-12-24T01:08:03.718Z,1022.71
2017-12-24T01:09:12.549Z,1022.73
2017-12-24T01:10:21.378Z,1022.84
2017-12-24T01:11:30.205Z,1022.85
2017-12-24T01:12:39.037Z,1022.83
2017-12-24T01:13:47.863Z,1022.77
2017-12-24T01:14:56.695Z,1022.83
2017-12-24T01:16:05.524Z,1022.89
2017-12-24T01:17:14.352Z,1022.86
2017-12-24T01:18:23.428Z,1022.82
2017-12-24T01:19:32.257Z,1022.75
2017-12-24T01:20:41.085Z,1022.78
2017-12-24T01:21:49.913Z,1022.84
2017-12-24T01:22:58.739Z,1022.76
2017-12-24T01:24:07.572Z,1022.77
2017-12-24T01:25:16.401Z,1022.81
2017-12-24T01:26:25.231Z,1022.81
2017-12-24T01:27:34.058Z,1022.85
2017-12-24T01:28:42.885Z,1022.96
2017-12-24T01:29:52.137Z,1022.89
2017-12-24T01:31:00.966Z,1022.92
2017-12-24T01:32:09.803Z,1022.86
2017-12-24T01:33:18.620Z,1022.94
2017-12-24T01:34:27.447Z,1022.88
2017-12-24T01:35:36.329Z,1022.99
2017-12-24T01:36:45.154Z,1023.02
2017-12-24T01:37:53.979Z,1023
2017-12-24T01:39:02.809Z,1023.1
2017-12-24T01:40:11.636Z,1023.03
2017-12-24T01:41:20.616Z,1023.04
2017-12-24T01:42:29.445Z,1023.25
2017-12-24T01:43:38.552Z,1023.19
2017-12-24T01:44:47.654Z,1023.18
2017-12-24T01:45:56.484Z,1023.37
2017-12-24T01:47:05.612Z,1023.23
2017-12-24T01:48:14.722Z,1023.24
2017-12-24T01:49:23.824Z,1023.24
2017-12-24T01:50:32.936Z,1023.27
2017-12-24T01:51:42.038Z,1023.25
2017-12-24T01:52:50.868Z,1023.17
2017-12-24T01:53:59.694Z,1023.22
2017-12-24T01:55:08.523Z,1023.22
2017-12-24T01:56:17.351Z,1023.16
2017-12-24T01:57:26.180Z,1023.23
2017-12-24T01:58:35.061Z,1023.18
2017-12-24T01:59:44.162Z,1023.16
2017-12-24T02:00:52.991Z,1023.13
2017-12-24T02:02:01.823Z,1023.07
2017-12-24T02:03:10.650Z,1023.12
2017-12-24T02:04:19.729Z,1023.22
2017-12-24T02:05:28.556Z,1023.26
2017-12-24T02:06:37.384Z,1023.15
2017-12-24T02:07:46.213Z,1023.18
2017-12-24T02:08:55.041Z,1023.27
2017-12-24T02:10:03.917Z,1023.31
2017-12-24T02:11:12.748Z,1023.26
2017-12-24T02:12:21.573Z,1023.3
2017-12-24T02:13:30.403Z,1023.32
2017-12-24T02:14:39.231Z,1023.28
2017-12-24T02:15:48.058Z,1023.23
2017-12-24T02:16:56.887Z,1023.35
2017-12-24T02:18:05.714Z,1023.31
2017-12-24T02:19:14.545Z,1023.29
2017-12-24T02:20:23.372Z,1023.24
2017-12-24T02:21:32.252Z,1023.25
2017-12-24T02:22:41.079Z,1023.27
2017-12-24T02:23:49.907Z,1023.32
2017-12-24T02:24:58.735Z,1023.28
2017-12-24T02:26:07.568Z,1023.29
2017-12-24T02:27:16.668Z,1023.16
2017-12-24T02:28:25.778Z,1023.28
2017-12-24T02:29:34.603Z,1023.25
2017-12-24T02:30:43.711Z,1023.18
2017-12-24T02:31:52.539Z,1023.18
2017-12-24T02:33:01.638Z,1023.31
2017-12-24T02:34:10.465Z,1023.28
2017-12-24T02:35:19.292Z,1023.35
2017-12-24T02:36:28.172Z,1023.19
2017-12-24T02:37:37.002Z,1023.19
2017-12-24T02:38:45.840Z,1023.24
2017-12-24T02:39:54.671Z,1023.25
2017-12-24T02:41:03.503Z,1023.28
2017-12-24T02:42:12.332Z,1023.23
2017-12-24T02:43:21.433Z,1023.18
2017-12-24T02:44:30.365Z,1023.19
2017-12-24T02:45:39.194Z,1023.19
2017-12-24T02:46:48.029Z,1023.17
2017-12-24T02:47:56.855Z,1023.2
2017-12-24T02:49:05.682Z,1023.18
2017-12-24T02:50:14.611Z,1023.16
2017-12-24T02:51:23.440Z,1023.1
2017-12-24T02:52:32.542Z,1023.17
2017-12-24T02:53:41.369Z,1023.04
2017-12-24T02:54:50.199Z,1023.04
2017-12-24T02:55:59.177Z,1023.07
2017-12-24T02:57:08.004Z,1023.02
2017-12-24T02:58:16.832Z,1023.03
2017-12-24T02:59:25.661Z,1023.04
2017-12-24T03:00:34.766Z,1023.1
2017-12-24T03:01:43.895Z,1023.12
2017-12-24T03:02:52.721Z,1023.15
2017-12-24T03:04:01.548Z,1023.13
2017-12-24T03:05:10.652Z,1023.12
2017-12-24T03:06:19.478Z,1023
2017-12-24T03:07:28.408Z,1023.06
2017-12-24T03:08:37.239Z,1023.03
2017-12-24T03:09:46.068Z,1023.02
2017-12-24T03:10:54.894Z,1023.04
2017-12-24T03:12:03.720Z,1023.06
2017-12-24T03:13:12.551Z,1022.98
2017-12-24T03:14:21.376Z,1023.09
2017-12-24T03:15:30.207Z,1022.99
2017-12-24T03:16:39.033Z,1022.92
2017-12-24T03:17:47.860Z,1022.94
2017-12-24T03:18:56.689Z,1022.97
2017-12-24T03:20:05.515Z,1022.93
2017-12-24T03:21:14.339Z,1022.93
2017-12-24T03:22:23.165Z,1022.95
2017-12-24T03:23:31.994Z,1022.98
2017-12-24T03:24:41.248Z,1022.87
2017-12-24T03:25:50.076Z,1022.93
2017-12-24T03:26:59.176Z,1022.85
2017-12-24T03:28:08.006Z,1022.93
2017-12-24T03:29:16.833Z,1022.92
2017-12-24T03:30:25.814Z,1022.92
2017-12-24T03:31:34.647Z,1022.89
2017-12-24T03:32:43.478Z,1022.84
2017-12-24T03:33:52.309Z,1022.82
2017-12-24T03:35:01.139Z,1022.72
2017-12-24T03:36:10.520Z,1022.71
2017-12-24T03:37:19.350Z,1022.65
2017-12-24T03:38:28.451Z,1022.66
2017-12-24T03:39:37.279Z,1022.68
2017-12-24T03:40:46.106Z,1022.66
2017-12-24T03:41:55.034Z,1022.66
2017-12-24T03:43:03.862Z,1022.55
2017-12-24T03:44:12.692Z,1022.61
2017-12-24T03:45:21.523Z,1022.5
2017-12-24T03:46:30.623Z,1022.56
2017-12-24T03:47:39.506Z,1022.49
2017-12-24T03:48:48.333Z,1022.43
2017-12-24T03:49:57.162Z,1022.47
2017-12-24T03:51:06.266Z,1022.44
2017-12-24T03:52:15.095Z,1022.44
2017-12-24T03:53:23.975Z,1022.48
2017-12-24T03:54:32.806Z,1022.49
2017-12-24T03:55:41.634Z,1022.43
2017-12-24T03:56:50.462Z,1022.54
2017-12-24T03:57:59.292Z,1022.55
2017-12-24T03:59:08.118Z,1022.48
2017-12-24T04:00:16.948Z,1022.53
2017-12-24T04:01:25.773Z,1022.54
2017-12-24T04:02:34.598Z,1022.53
2017-12-24T04:03:43.426Z,1022.55
2017-12-24T04:04:52.460Z,1022.53
2017-12-24T04:06:01.233Z,1022.54
2017-12-24T04:07:10.059Z,1022.55
2017-12-24T04:08:18.889Z,1022.59
2017-12-24T04:09:27.714Z,1022.57
2017-12-24T04:10:36.693Z,1022.58
2017-12-24T04:11:45.521Z,1022.67
2017-12-24T04:12:54.619Z,1022.72
2017-12-24T04:14:03.445Z,1022.64
2017-12-24T04:15:12.273Z,1022.91
2017-12-24T04:16:21.102Z,1022.7
2017-12-24T04:17:29.931Z,1022.78
2017-12-24T04:18:38.760Z,1022.69
2017-12-24T04:19:47.592Z,1022.77
2017-12-24T04:20:56.416Z,1022.71
2017-12-24T04:22:05.396Z,1022.76
2017-12-24T04:23:14.223Z,1022.66
2017-12-24T04:24:23.050Z,1022.76
2017-12-24T04:25:31.878Z,1022.76
2017-12-24T04:26:40.705Z,1022.72
2017-12-24T04:27:49.535Z,1022.73
2017-12-24T04:28:58.366Z,1022.73
2017-12-24T04:30:07.194Z,1022.75
2017-12-24T04:31:16.298Z,1022.72
2017-12-24T04:32:25.408Z,1022.67
2017-12-24T04:33:34.811Z,1022.58
2017-12-24T04:34:43.640Z,1022.56
2017-12-24T04:35:52.467Z,1022.61
2017-12-24T04:37:01.293Z,1022.61
2017-12-24T04:38:10.121Z,1022.56
2017-12-24T04:39:19.047Z,1022.57
2017-12-24T04:40:27.875Z,1022.56
2017-12-24T04:41:36.703Z,1022.65
2017-12-24T04:42:45.533Z,1022.59
2017-12-24T04:43:54.363Z,1022.6
2017-12-24T04:45:03.389Z,1022.57
2017-12-24T04:46:12.218Z,1022.46
2017-12-24T04:47:21.047Z,1022.51
2017-12-24T04:48:29.875Z,1022.52
2017-12-24T04:49:38.705Z,1022.51
2017-12-24T04:50:47.584Z,1022.48
2017-12-24T04:51:56.413Z,1022.56
2017-12-24T04:53:05.242Z,1022.4
2017-12-24T04:54:14.074Z,1022.47
2017-12-24T04:55:22.901Z,1022.36
2017-12-24T04:56:31.832Z,1022.43
2017-12-24T04:57:40.662Z,1022.35
2017-12-24T04:58:49.488Z,1022.41
2017-12-24T04:59:58.316Z,1022.37
2017-12-24T05:01:07.146Z,1022.33
2017-12-24T05:02:16.075Z,1022.32
2017-12-24T05:03:24.904Z,1022.31
2017-12-24T05:04:33.734Z,1022.37
2017-12-24T05:05:42.563Z,1022.38
2017-12-24T05:06:51.390Z,1022.4
2017-12-24T05:08:00.267Z,1022.36
2017-12-24T05:09:09.094Z,1022.45
2017-12-24T05:10:17.923Z,1022.49
2017-12-24T05:11:26.751Z,1022.51
2017-12-24T05:12:35.861Z,1022.46
2017-12-24T05:13:44.848Z,1022.42
2017-12-24T05:14:54.004Z,1022.41
2017-12-24T05:16:02.864Z,1022.43
2017-12-24T05:17:11.661Z,1022.37
2017-12-24T05:18:20.489Z,1022.33
2017-12-24T05:19:29.466Z,1022.34
2017-12-24T05:20:38.298Z,1022.26
2017-12-24T05:21:47.123Z,1022.33
2017-12-24T05:22:55.951Z,1022.3
2017-12-24T05:24:04.780Z,1022.27
2017-12-24T05:25:13.905Z,1022.29
2017-12-24T05:26:22.731Z,1022.23
2017-12-24T05:27:31.560Z,1022.26
2017-12-24T05:28:40.386Z,1022.17
2017-12-24T05:29:49.484Z,1022.24
2017-12-24T05:30:58.317Z,1022.19
2017-12-24T05:32:07.146Z,1022.22
2017-12-24T05:33:15.971Z,1022.19
2017-12-24T05:34:25.073Z,1022.13
2017-12-24T05:35:33.904Z,1022.14
2017-12-24T05:36:42.989Z,1022.12
2017-12-24T05:37:51.817Z,1022.19
2017-12-24T05:39:00.644Z,1022.14
2017-12-24T05:40:09.472Z,1022.13
2017-12-24T05:41:18.298Z,1022.18
2017-12-24T05:42:27.225Z,1022.06
2017-12-24T05:43:36.053Z,1022.06
2017-12-24T05:44:44.882Z,1022.05
2017-12-24T05:45:53.711Z,1022.05
2017-12-24T05:47:02.538Z,1022.02
2017-12-24T05:48:11.415Z,1022
2017-12-24T05:49:20.244Z,1022.12
2017-12-24T05:50:29.074Z,1022.06
2017-12-24T05:51:37.908Z,1022.08
2017-12-24T05:52:46.731Z,1022.2
2017-12-24T05:53:55.709Z,1022.16
2017-12-24T05:55:04.537Z,1022
2017-12-24T05:56:13.365Z,1022.04
2017-12-24T05:57:22.194Z,1022.03
2017-12-24T05:58:31.571Z,1022.06
2017-12-24T05:59:40.397Z,1022.06
2017-12-24T06:00:49.227Z,1022.02
2017-12-24T06:01:58.053Z,1022.06
2017-12-24T06:03:06.882Z,1021.91
2017-12-24T06:04:15.711Z,1021.79
2017-12-24T06:05:24.590Z,1021.88
2017-12-24T06:06:33.442Z,1021.79
2017-12-24T06:07:42.318Z,1021.78
2017-12-24T06:08:51.147Z,1021.8
2017-12-24T06:09:59.975Z,1021.71
2017-12-24T06:11:08.854Z,1021.85
2017-12-24T06:12:17.986Z,1021.81
2017-12-24T06:13:26.817Z,1021.82
2017-12-24T06:14:35.645Z,1021.78
2017-12-24T06:15:44.473Z,1021.85
2017-12-24T06:16:53.303Z,1021.8
2017-12-24T06:18:02.131Z,1021.81
2017-12-24T06:19:10.959Z,1021.78
2017-12-24T06:20:19.790Z,1021.78
2017-12-24T06:21:28.616Z,1021.73
2017-12-24T06:22:37.598Z,1021.75
2017-12-24T06:23:46.428Z,1021.76
2017-12-24T06:24:55.255Z,1021.74
2017-12-24T06:26:04.082Z,1021.73
2017-12-24T06:27:12.916Z,1021.67
2017-12-24T06:28:21.747Z,1021.75
2017-12-24T06:29:30.577Z,1021.64
2017-12-24T06:30:39.408Z,1021.75
2017-12-24T06:31:48.238Z,1021.68
2017-12-24T06:32:57.066Z,1021.75
2017-12-24T06:34:06.046Z,1021.72
2017-12-24T06:35:14.875Z,1021.71
2017-12-24T06:36:23.704Z,1021.69
2017-12-24T06:37:32.535Z,1021.72
2017-12-24T06:38:41.362Z,1021.67
2017-12-24T06:39:50.290Z,1021.67
2017-12-24T06:40:59.121Z,1021.64
2017-12-24T06:42:08.227Z,1021.64
2017-12-24T06:43:17.053Z,1021.92
2017-12-24T06:44:25.885Z,1021.57
2017-12-24T06:45:34.714Z,1021.49
2017-12-24T06:46:43.548Z,1021.58
2017-12-24T06:47:52.380Z,1021.51
2017-12-24T06:49:01.213Z,1021.53
2017-12-24T06:50:10.043Z,1021.47
2017-12-24T06:51:18.921Z,1021.43
2017-12-24T06:52:27.761Z,1021.39
2017-12-24T06:53:36.591Z,1021.53
2017-12-24T06:54:45.419Z,1021.36
2017-12-24T06:55:54.250Z,1021.35
2017-12-24T06:57:03.181Z,1021.32
2017-12-24T06:58:12.011Z,1021.33
2017-12-24T06:59:20.836Z,1021.37
2017-12-24T07:00:29.719Z,1021.43
2017-12-24T07:01:38.820Z,1021.33
2017-12-24T07:02:47.749Z,1021.35
2017-12-24T07:03:56.579Z,1021.32
2017-12-24T07:05:05.409Z,1021.34
2017-12-24T07:06:14.239Z,1021.5
2017-12-24T07:07:23.077Z,1021.58
2017-12-24T07:08:31.910Z,1021.31
2017-12-24T07:09:40.738Z,1021.34
2017-12-24T07:10:49.842Z,1021.37
2017-12-24T07:11:58.947Z,1021.3
2017-12-24T07:13:07.778Z,1021.33
2017-12-24T07:14:16.757Z,1021.29
2017-12-24T07:15:25.590Z,1021.32
2017-12-24T07:16:34.424Z,1021.41
2017-12-24T07:17:43.255Z,1021.37
2017-12-24T07:18:52.082Z,1021.39
2017-12-24T07:20:01.210Z,1021.32
2017-12-24T07:21:10.047Z,1021.39
2017-12-24T07:22:18.876Z,1021.32
2017-12-24T07:23:27.705Z,1021.4
2017-12-24T07:24:36.533Z,1021.48
2017-12-24T07:25:45.461Z,1021.44
2017-12-24T07:26:54.289Z,1021.43
2017-12-24T07:28:03.119Z,1021.43
2017-12-24T07:29:11.945Z,1021.35
2017-12-24T07:30:20.775Z,1021.38
2017-12-24T07:31:29.605Z,1021.37
2017-12-24T07:32:38.433Z,1021.49
2017-12-24T07:33:47.541Z,1021.5
2017-12-24T07:34:56.371Z,1021.46
2017-12-24T07:36:05.200Z,1021.46
2017-12-24T07:37:14.704Z,1021.47
2017-12-24T07:38:23.532Z,1021.41
2017-12-24T07:39:32.372Z,1021.55
2017-12-24T07:40:41.193Z,1021.46
2017-12-24T07:41:50.123Z,1021.52
2017-12-24T07:42:59.253Z,1021.49
2017-12-24T07:44:08.356Z,1021.58
2017-12-24T07:45:17.234Z,1021.56
2017-12-24T07:46:26.012Z,1021.54
2017-12-24T07:47:35.119Z,1021.6
2017-12-24T07:48:43.949Z,1021.53
2017-12-24T07:49:52.776Z,1021.57
2017-12-24T07:51:01.604Z,1021.51
2017-12-24T07:52:10.434Z,1021.48
2017-12-24T07:53:19.263Z,1021.52
2017-12-24T07:54:28.190Z,1021.47
2017-12-24T07:55:37.306Z,1021.59
2017-12-24T07:56:46.401Z,1021.52
2017-12-24T07:57:55.504Z,1021.42
2017-12-24T07:59:04.334Z,1021.57
2017-12-24T08:00:13.267Z,1021.62
2017-12-24T08:01:22.368Z,1021.55
2017-12-24T08:02:31.197Z,1021.49
2017-12-24T08:03:40.028Z,1021.47
2017-12-24T08:04:48.857Z,1021.49
2017-12-24T08:05:57.686Z,1021.55
2017-12-24T08:07:06.513Z,1021.45
2017-12-24T08:08:15.344Z,1021.62
2017-12-24T08:09:24.177Z,1021.53
2017-12-24T08:10:33.030Z,1021.5
2017-12-24T08:11:42.299Z,1021.53
2017-12-24T08:12:51.130Z,1021.52
2017-12-24T08:13:59.960Z,1021.49
2017-12-24T08:15:08.795Z,1021.53
2017-12-24T08:16:17.615Z,1021.46
2017-12-24T08:17:26.444Z,1021.43
2017-12-24T08:18:35.271Z,1021.42
2017-12-24T08:19:44.101Z,1021.47
2017-12-24T08:20:52.931Z,1021.4
2017-12-24T08:22:01.759Z,1021.49
2017-12-24T08:23:10.587Z,1021.38
2017-12-24T08:24:19.416Z,1021.45
2017-12-24T08:25:28.518Z,1021.4
2017-12-24T08:26:37.499Z,1021.44
2017-12-24T08:27:46.328Z,1021.4
2017-12-24T08:28:55.160Z,1021.38
2017-12-24T08:30:03.989Z,1021.38
2017-12-24T08:31:12.820Z,1021.34
2017-12-24T08:32:21.646Z,1021.29
2017-12-24T08:33:30.475Z,1021.27
2017-12-24T08:34:39.305Z,1021.24
2017-12-24T08:35:48.133Z,1021.21
2017-12-24T08:36:57.263Z,1021.23
2017-12-24T08:38:06.092Z,1021.19
2017-12-24T08:39:14.971Z,1021.24
2017-12-24T08:40:24.085Z,1021.23
2017-12-24T08:41:32.915Z,1021.23
2017-12-24T08:42:42.054Z,1021.18
2017-12-24T08:43:51.157Z,1021.17
2017-12-24T08:45:00.261Z,1021.22
2017-12-24T08:46:09.091Z,1021.19
2017-12-24T08:47:17.922Z,1021.2
2017-12-24T08:48:26.754Z,1021.26
2017-12-24T08:49:35.879Z,1021.2
2017-12-24T08:50:45.485Z,1021.15
2017-12-24T08:51:55.276Z,1021.24
2017-12-24T08:53:04.602Z,1021.25
2017-12-24T08:54:14.327Z,1021.2
2017-12-24T08:55:23.445Z,1021.29
2017-12-24T08:56:32.641Z,1021.29
2017-12-24T08:57:41.554Z,1021.26
2017-12-24T08:58:50.387Z,1021.24
2017-12-24T08:59:59.289Z,1021.35
2017-12-24T09:01:08.212Z,1021.29
2017-12-24T09:02:17.068Z,1021.4
2017-12-24T09:03:25.898Z,1021.39
2017-12-24T09:04:34.730Z,1021.29
2017-12-24T09:05:43.563Z,1021.37
2017-12-24T09:06:52.393Z,1021.33
2017-12-24T09:08:01.534Z,1021.42
2017-12-24T09:09:10.684Z,1021.39
2017-12-24T09:10:19.516Z,1021.42
2017-12-24T09:11:28.646Z,1021.39
2017-12-24T09:12:37.478Z,1021.43
2017-12-24T09:13:46.341Z,1021.44
2017-12-24T09:14:57.236Z,1021.44
2017-12-24T09:16:06.460Z,1021.46
2017-12-24T09:17:15.674Z,1021.4
2017-12-24T09:18:24.792Z,1021.44
2017-12-24T09:19:33.853Z,1021.42
2017-12-24T09:20:43.372Z,1021.41
2017-12-24T09:21:52.383Z,1021.44
2017-12-24T09:23:01.515Z,1021.41
2017-12-24T09:24:10.348Z,1021.43
2017-12-24T09:25:19.177Z,1021.34
2017-12-24T09:26:28.325Z,1021.43
2017-12-24T09:27:37.126Z,1021.37
2017-12-24T09:28:45.958Z,1021.4
2017-12-24T09:29:54.788Z,1021.38
2017-12-24T09:31:03.619Z,1021.44
2017-12-24T09:32:12.450Z,1021.4
2017-12-24T09:33:21.281Z,1021.37
2017-12-24T09:34:30.112Z,1021.45
2017-12-24T09:35:38.942Z,1021.4
2017-12-24T09:36:47.772Z,1021.34
2017-12-24T09:37:56.601Z,1021.32
2017-12-24T09:39:05.435Z,1021.33
2017-12-24T09:40:14.818Z,1021.37
2017-12-24T09:41:23.647Z,1021.33
2017-12-24T09:42:32.478Z,1021.37
2017-12-24T09:43:41.306Z,1021.45
2017-12-24T09:44:50.137Z,1021.34
2017-12-24T09:45:59.217Z,1021.41
2017-12-24T09:47:08.045Z,1021.4
2017-12-24T09:48:16.874Z,1021.37
2017-12-24T09:49:25.704Z,1021.36
2017-12-24T09:50:34.533Z,1021.29
2017-12-24T09:51:43.512Z,1021.34
2017-12-24T09:52:52.344Z,1021.35
2017-12-24T09:54:01.173Z,1021.26
2017-12-24T09:55:10.003Z,1021.44
2017-12-24T09:56:18.830Z,1021.33
2017-12-24T09:57:27.911Z,1021.39
2017-12-24T09:58:36.738Z,1021.4
2017-12-24T09:59:45.566Z,1021.45
2017-12-24T10:00:54.398Z,1021.35
2017-12-24T10:02:03.517Z,1021.38
2017-12-24T10:03:12.393Z,1021.36
2017-12-24T10:04:21.223Z,1021.42
2017-12-24T10:05:30.052Z,1021.38
2017-12-24T10:06:39.157Z,1021.35
2017-12-24T10:07:47.988Z,1021.34
2017-12-24T10:08:56.815Z,1021.32
2017-12-24T10:10:05.644Z,1021.32
2017-12-24T10:11:14.474Z,1021.38
2017-12-24T10:12:23.856Z,1021.21
2017-12-24T10:13:32.687Z,1021.42
2017-12-24T10:14:41.815Z,1021.26
2017-12-24T10:15:50.654Z,1021.26
2017-12-24T10:16:59.477Z,1021.32
2017-12-24T10:18:08.307Z,1021.28
2017-12-24T10:19:17.143Z,1021.28
2017-12-24T10:20:26.397Z,1021.28
2017-12-24T10:21:35.227Z,1021.3
2017-12-24T10:22:44.057Z,1021.25
2017-12-24T10:23:52.888Z,1021.27
2017-12-24T10:25:01.718Z,1021.21
2017-12-24T10:26:10.874Z,1021.28
2017-12-24T10:27:19.701Z,1021.15
2017-12-24T10:28:28.530Z,1021.19
2017-12-24T10:29:37.358Z,1021.2
2017-12-24T10:30:46.189Z,1021.16
2017-12-24T10:31:55.169Z,1021.09
2017-12-24T10:33:04.099Z,1021.22
2017-12-24T10:34:12.932Z,1021.22
2017-12-24T10:35:21.761Z,1021.16
2017-12-24T10:36:30.592Z,1021.17
2017-12-24T10:37:40.004Z,1021.1
2017-12-24T10:38:48.826Z,1021.18
2017-12-24T10:39:57.938Z,1021.17
2017-12-24T10:41:07.069Z,1021.2
2017-12-24T10:42:15.898Z,1021.17
2017-12-24T10:43:24.828Z,1021.13
2017-12-24T10:44:33.658Z,1021.13
2017-12-24T10:45:42.490Z,1021.18
2017-12-24T10:46:51.320Z,1021.2
2017-12-24T10:48:00.151Z,1021.13
2017-12-24T10:49:09.135Z,1021.08
2017-12-24T10:50:17.960Z,1021.13
2017-12-24T10:51:26.790Z,1020.96
2017-12-24T10:52:35.620Z,1021.01
2017-12-24T10:53:44.530Z,1020.97
2017-12-24T10:54:53.410Z,1020.96
2017-12-24T10:56:02.244Z,1020.97
2017-12-24T10:57:11.352Z,1020.93
2017-12-24T10:58:20.215Z,1020.91
2017-12-24T10:59:29.321Z,1020.96
2017-12-24T11:00:38.251Z,1020.93
2017-12-24T11:01:47.079Z,1020.84
2017-12-24T11:02:55.911Z,1020.9
2017-12-24T11:04:04.737Z,1020.92
2017-12-24T11:05:13.842Z,1020.93
2017-12-24T11:06:22.971Z,1020.78
2017-12-24T11:07:31.819Z,1020.9
2017-12-24T11:08:40.653Z,1020.78
2017-12-24T11:09:49.476Z,1020.79
2017-12-24T11:10:58.304Z,1020.78
2017-12-24T11:12:07.285Z,1020.81
2017-12-24T11:13:16.314Z,1020.86
2017-12-24T11:14:25.144Z,1020.82
2017-12-24T11:15:33.975Z,1020.82
2017-12-24T11:16:42.804Z,1020.72
2017-12-24T11:17:51.785Z,1020.69
2017-12-24T11:19:00.615Z,1020.74
2017-12-24T11:20:09.718Z,1020.76
2017-12-24T11:21:18.550Z,1020.89
2017-12-24T11:22:27.381Z,1020.67
2017-12-24T11:23:36.212Z,1020.61
2017-12-24T11:24:45.043Z,1020.6
2017-12-24T11:25:54.148Z,1020.7
2017-12-24T11:27:02.976Z,1020.68
2017-12-24T11:28:11.806Z,1020.76
2017-12-24T11:29:20.737Z,1020.6
2017-12-24T11:30:29.842Z,1020.5
2017-12-24T11:31:38.672Z,1020.47
2017-12-24T11:32:47.502Z,1020.46
2017-12-24T11:33:56.334Z,1020.37
2017-12-24T11:35:05.159Z,1020.37
2017-12-24T11:36:13.989Z,1020.5
2017-12-24T11:37:22.818Z,1020.36
2017-12-24T11:38:31.649Z,1020.38
2017-12-24T11:39:40.483Z,1020.47
2017-12-24T11:40:49.465Z,1020.4
2017-12-24T11:41:58.295Z,1020.38
2017-12-24T11:43:07.130Z,1020.3
2017-12-24T11:44:16.234Z,1020.32
2017-12-24T11:45:25.065Z,1020.26
2017-12-24T11:46:34.044Z,1020.24
2017-12-24T11:47:42.873Z,1020.3
2017-12-24T11:48:51.704Z,1020.26
2017-12-24T11:50:00.534Z,1020.42
2017-12-24T11:51:09.647Z,1020.16
2017-12-24T11:52:18.578Z,1020.15
2017-12-24T11:53:27.408Z,1020.18
2017-12-24T11:54:36.238Z,1020.03
2017-12-24T11:55:45.067Z,1020.13
2017-12-24T11:56:53.898Z,1020.07
2017-12-24T11:58:02.878Z,1020.07
2017-12-24T11:59:11.707Z,1020.14
2017-12-24T12:00:20.542Z,1020.07
2017-12-24T12:01:29.373Z,1020.13
2017-12-24T12:02:38.208Z,1020.12
2017-12-24T12:03:47.038Z,1020.08
2017-12-24T12:04:55.869Z,1020.08
2017-12-24T12:06:04.698Z,1020.08
2017-12-24T12:07:13.529Z,1020.04
2017-12-24T12:08:22.360Z,1020.13
2017-12-24T12:09:31.615Z,1019.98
2017-12-24T12:10:40.445Z,1020.06
2017-12-24T12:11:49.271Z,1020.06
2017-12-24T12:12:58.101Z,1020.08
2017-12-24T12:14:06.929Z,1020.01
2017-12-24T12:15:15.915Z,1020.02
2017-12-24T12:16:24.742Z,1020
2017-12-24T12:17:33.571Z,1019.95
2017-12-24T12:18:42.407Z,1019.91
2017-12-24T12:19:51.516Z,1019.87
2017-12-24T12:21:00.723Z,1020.02
2017-12-24T12:22:09.579Z,1019.94
2017-12-24T12:23:19.134Z,1019.88
2017-12-24T12:24:28.889Z,1019.82
2017-12-24T12:25:37.994Z,1019.88
2017-12-24T12:26:47.226Z,1019.85
2017-12-24T12:27:56.071Z,1019.8
2017-12-24T12:29:04.905Z,1019.78
2017-12-24T12:30:13.746Z,1019.86
2017-12-24T12:31:22.620Z,1019.84
2017-12-24T12:32:31.500Z,1019.87
2017-12-24T12:33:40.328Z,1019.74
2017-12-24T12:34:49.157Z,1019.71
2017-12-24T12:35:57.989Z,1019.69
2017-12-24T12:37:06.819Z,1019.61
2017-12-24T12:38:15.801Z,1019.76
2017-12-24T12:39:24.630Z,1019.66
2017-12-24T12:40:33.741Z,1019.64
2017-12-24T12:41:42.569Z,1019.62
2017-12-24T12:42:51.399Z,1019.54
2017-12-24T12:44:00.378Z,1019.68
2017-12-24T12:45:09.212Z,1019.5
2017-12-24T12:46:18.038Z,1019.52
2017-12-24T12:47:26.870Z,1019.58
2017-12-24T12:48:35.702Z,1019.5
2017-12-24T12:49:44.682Z,1019.59
2017-12-24T12:50:53.510Z,1019.45
2017-12-24T12:52:02.342Z,1019.42
2017-12-24T12:53:11.171Z,1019.41
2017-12-24T12:54:20.005Z,1019.32
2017-12-24T12:55:29.137Z,1019.36
2017-12-24T12:56:37.965Z,1019.3
2017-12-24T12:57:46.796Z,1019.38
2017-12-24T12:58:55.903Z,1019.42
2017-12-24T13:00:04.733Z,1019.35
2017-12-24T13:01:13.666Z,1019.36
2017-12-24T13:02:22.496Z,1019.33
2017-12-24T13:03:31.324Z,1019.37
2017-12-24T13:04:40.155Z,1019.32
2017-12-24T13:05:48.985Z,1019.27
2017-12-24T13:06:57.816Z,1019.27
2017-12-24T13:08:06.960Z,1019.25
2017-12-24T13:09:15.804Z,1019.2
2017-12-24T13:10:24.634Z,1019.22
2017-12-24T13:11:33.462Z,1019.29
2017-12-24T13:12:42.393Z,1019.26
2017-12-24T13:13:51.226Z,1019.14
2017-12-24T13:15:00.058Z,1019.22
2017-12-24T13:16:08.889Z,1019.2
2017-12-24T13:17:17.719Z,1019.27
2017-12-24T13:18:26.550Z,1019.23
2017-12-24T13:19:35.381Z,1019.23
2017-12-24T13:20:44.211Z,1019.27
2017-12-24T13:21:53.042Z,1019.2
2017-12-24T13:23:01.874Z,1019.16
2017-12-24T13:24:10.698Z,1019.12
2017-12-24T13:25:19.529Z,1019.1
2017-12-24T13:26:28.361Z,1019.16
2017-12-24T13:27:37.470Z,1019.16
2017-12-24T13:28:46.299Z,1019.14
2017-12-24T13:29:55.132Z,1019.09
2017-12-24T13:31:03.964Z,1019.11
2017-12-24T13:32:12.795Z,1019.14
2017-12-24T13:33:21.624Z,1019.11
2017-12-24T13:34:30.778Z,1019.01
2017-12-24T13:35:39.970Z,1019
2017-12-24T13:36:48.800Z,1019.04
2017-12-24T13:37:57.630Z,1019
2017-12-24T13:39:06.461Z,1019.04
2017-12-24T13:40:15.293Z,1019
2017-12-24T13:41:24.272Z,1018.87
2017-12-24T13:42:33.104Z,1019.08
2017-12-24T13:43:41.944Z,1018.97
2017-12-24T13:44:50.767Z,1019.07
2017-12-24T13:45:59.872Z,1018.95
2017-12-24T13:47:09.004Z,1018.97
2017-12-24T13:48:17.834Z,1018.97
2017-12-24T13:49:26.667Z,1019.02
2017-12-24T13:50:35.498Z,1019.01
2017-12-24T13:51:44.328Z,1018.95
2017-12-24T13:52:53.159Z,1018.94
2017-12-24T13:54:02.265Z,1018.88
2017-12-24T13:55:11.369Z,1018.9
2017-12-24T13:56:20.200Z,1018.83